Hovedside
METAR-TAF:

METAR-TAF

Lufthavner :

Namsos, Norge

Namsos lufthavn

breddegrad: 64-28N, lengdegrad: 011-35E, høyde over havet: 0 m

Gjeldene værobservasjon

Denne rapporten ble laget for 21 minutter siden, klokken 05:50 UTC
Vind 9 kt fra Sør-sørøst, skiftende mellom Øst og Sør-sørvest
Temperatur 1°C
Luftfuktighet 75%
Trykk 1018 hPa
Sikt 10 km eller mer
Få skyer i en høyde av 2000 ft
Spredte skyer i en høyde av 4500 ft
Brutte skyer i en høyde av 7000 ft
regnbyger i nærheten

METAR: ENNM 240550Z 16009KT 100V200 9999 VCSH FEW020 SCT045 BKN070 01/M03 Q1018

Tid: 07:11 (06:11 UTC)


TAF: fraværende

Værobservasjoner og værvarsel for over 4000 flyplasser (METAR- og TAF-rapporter).

Tilgjengelige stasjoner er representert av de røde og gule prikkene på kartet.

Hold musepekeren over prikken for å se navnet på stasjonen.

Klikk så for å se værobservasjoner og -varsler.

For å forandre kartet kan du klikke på den grønne knappen med svart kryss for å zoome inn, på den grønne knappen med strek for å zoome ut, eller på de grønne pilene for å se tilstøtende kart.


METAR-TAF: